sensor_id;sensor_type;location;lat;lon;timestamp;P1;durP1;ratioP1;P2;durP2;ratioP2
46282;SDS011;32017;43.700;11.820;2023-12-20T00:00:11;68.85;;;62.33;;
46282;SDS011;32017;43.700;11.820;2023-12-20T00:02:12;69.43;;;62.15;;
46282;SDS011;32017;43.700;11.820;2023-12-20T00:04:14;57.15;;;52.28;;
46282;SDS011;32017;43.700;11.820;2023-12-20T00:06:16;63.65;;;58.22;;
46282;SDS011;32017;43.700;11.820;2023-12-20T00:08:18;61.90;;;56.42;;
46282;SDS011;32017;43.700;11.820;2023-12-20T00:10:19;61.92;;;56.40;;
46282;SDS011;32017;43.700;11.820;2023-12-20T00:12:21;64.15;;;58.25;;
46282;SDS011;32017;43.700;11.820;2023-12-20T00:14:23;65.43;;;59.25;;
46282;SDS011;32017;43.700;11.820;2023-12-20T00:16:25;78.00;;;70.13;;
46282;SDS011;32017;43.700;11.820;2023-12-20T00:18:26;60.47;;;55.10;;
46282;SDS011;32017;43.700;11.820;2023-12-20T00:20:28;55.85;;;51.42;;
46282;SDS011;32017;43.700;11.820;2023-12-20T00:22:30;59.22;;;54.28;;
46282;SDS011;32017;43.700;11.820;2023-12-20T00:24:31;55.03;;;50.70;;
46282;SDS011;32017;43.700;11.820;2023-12-20T00:26:33;51.75;;;47.63;;
46282;SDS011;32017;43.700;11.820;2023-12-20T00:28:35;55.05;;;51.05;;
46282;SDS011;32017;43.700;11.820;2023-12-20T00:30:37;49.53;;;46.15;;
46282;SDS011;32017;43.700;11.820;2023-12-20T00:32:39;44.80;;;41.10;;
46282;SDS011;32017;43.700;11.820;2023-12-20T00:34:40;49.60;;;45.93;;
46282;SDS011;32017;43.700;11.820;2023-12-20T00:36:42;47.67;;;43.97;;
46282;SDS011;32017;43.700;11.820;2023-12-20T00:38:44;52.63;;;48.72;;
46282;SDS011;32017;43.700;11.820;2023-12-20T00:40:46;51.47;;;47.67;;
46282;SDS011;32017;43.700;11.820;2023-12-20T00:42:47;52.92;;;49.08;;
46282;SDS011;32017;43.700;11.820;2023-12-20T00:44:49;50.47;;;46.35;;
46282;SDS011;32017;43.700;11.820;2023-12-20T00:46:52;48.92;;;45.08;;
46282;SDS011;32017;43.700;11.820;2023-12-20T00:48:53;55.85;;;51.72;;
46282;SDS011;32017;43.700;11.820;2023-12-20T00:50:55;53.83;;;49.53;;
46282;SDS011;32017;43.700;11.820;2023-12-20T00:52:57;56.17;;;51.67;;
46282;SDS011;32017;43.700;11.820;2023-12-20T00:54:58;54.93;;;50.50;;
46282;SDS011;32017;43.700;11.820;2023-12-20T00:57:00;51.33;;;47.63;;
46282;SDS011;32017;43.700;11.820;2023-12-20T00:59:02;51.15;;;47.47;;
46282;SDS011;32017;43.700;11.820;2023-12-20T01:01:03;53.80;;;50.20;;
46282;SDS011;32017;43.700;11.820;2023-12-20T01:03:05;50.22;;;46.08;;
46282;SDS011;32017;43.700;11.820;2023-12-20T01:05:07;54.53;;;50.83;;
46282;SDS011;32017;43.700;11.820;2023-12-20T01:07:11;53.65;;;50.15;;
46282;SDS011;32017;43.700;11.820;2023-12-20T01:09:12;52.17;;;48.45;;
46282;SDS011;32017;43.700;11.820;2023-12-20T01:11:14;48.70;;;45.28;;
46282;SDS011;32017;43.700;11.820;2023-12-20T01:13:16;50.30;;;46.63;;
46282;SDS011;32017;43.700;11.820;2023-12-20T01:15:17;53.07;;;49.37;;
46282;SDS011;32017;43.700;11.820;2023-12-20T01:17:19;51.47;;;48.17;;
46282;SDS011;32017;43.700;11.820;2023-12-20T01:19:20;47.90;;;44.58;;
46282;SDS011;32017;43.700;11.820;2023-12-20T01:21:23;54.78;;;50.47;;
46282;SDS011;32017;43.700;11.820;2023-12-20T01:23:24;65.25;;;59.20;;
46282;SDS011;32017;43.700;11.820;2023-12-20T01:25:26;71.32;;;64.43;;
46282;SDS011;32017;43.700;11.820;2023-12-20T01:27:28;72.47;;;65.45;;
46282;SDS011;32017;43.700;11.820;2023-12-20T01:29:29;73.90;;;66.47;;
46282;SDS011;32017;43.700;11.820;2023-12-20T01:31:31;73.43;;;65.65;;
46282;SDS011;32017;43.700;11.820;2023-12-20T01:33:33;67.67;;;61.20;;
46282;SDS011;32017;43.700;11.820;2023-12-20T01:35:34;69.38;;;62.75;;
46282;SDS011;32017;43.700;11.820;2023-12-20T01:37:36;66.75;;;60.80;;
46282;SDS011;32017;43.700;11.820;2023-12-20T01:39:37;62.33;;;57.22;;
46282;SDS011;32017;43.700;11.820;2023-12-20T01:41:39;65.10;;;59.20;;
46282;SDS011;32017;43.700;11.820;2023-12-20T01:43:41;60.33;;;54.78;;
46282;SDS011;32017;43.700;11.820;2023-12-20T01:45:52;63.83;;;58.30;;
46282;SDS011;32017;43.700;11.820;2023-12-20T01:47:57;59.50;;;54.92;;
46282;SDS011;32017;43.700;11.820;2023-12-20T01:50:00;61.47;;;56.15;;
46282;SDS011;32017;43.700;11.820;2023-12-20T01:52:05;64.03;;;58.13;;
46282;SDS011;32017;43.700;11.820;2023-12-20T01:54:08;64.95;;;59.08;;
46282;SDS011;32017;43.700;11.820;2023-12-20T01:56:10;69.23;;;62.27;;
46282;SDS011;32017;43.700;11.820;2023-12-20T01:58:12;65.07;;;59.38;;
46282;SDS011;32017;43.700;11.820;2023-12-20T02:02:16;66.40;;;59.83;;
46282;SDS011;32017;43.700;11.820;2023-12-20T02:04:18;59.90;;;54.67;;
46282;SDS011;32017;43.700;11.820;2023-12-20T02:06:21;60.05;;;54.53;;
46282;SDS011;32017;43.700;11.820;2023-12-20T02:10:24;56.85;;;52.33;;
46282;SDS011;32017;43.700;11.820;2023-12-20T02:12:26;57.78;;;53.40;;
46282;SDS011;32017;43.700;11.820;2023-12-20T02:14:28;56.25;;;51.80;;
46282;SDS011;32017;43.700;11.820;2023-12-20T02:16:30;59.90;;;54.80;;
46282;SDS011;32017;43.700;11.820;2023-12-20T02:18:31;61.85;;;57.00;;
46282;SDS011;32017;43.700;11.820;2023-12-20T02:20:36;61.42;;;56.47;;
46282;SDS011;32017;43.700;11.820;2023-12-20T02:22:38;61.43;;;57.00;;
46282;SDS011;32017;43.700;11.820;2023-12-20T02:24:40;57.53;;;52.75;;
46282;SDS011;32017;43.700;11.820;2023-12-20T02:26:41;58.10;;;53.60;;
46282;SDS011;32017;43.700;11.820;2023-12-20T02:28:47;61.63;;;56.55;;
46282;SDS011;32017;43.700;11.820;2023-12-20T02:30:49;60.83;;;55.25;;
46282;SDS011;32017;43.700;11.820;2023-12-20T02:32:51;57.70;;;52.85;;
46282;SDS011;32017;43.700;11.820;2023-12-20T02:34:53;60.20;;;55.53;;
46282;SDS011;32017;43.700;11.820;2023-12-20T02:36:55;53.22;;;49.63;;
46282;SDS011;32017;43.700;11.820;2023-12-20T02:38:56;55.93;;;51.47;;
46282;SDS011;32017;43.700;11.820;2023-12-20T02:40:58;58.30;;;53.13;;
46282;SDS011;32017;43.700;11.820;2023-12-20T02:43:00;56.15;;;51.78;;
46282;SDS011;32017;43.700;11.820;2023-12-20T02:45:01;59.95;;;54.75;;
46282;SDS011;32017;43.700;11.820;2023-12-20T02:47:03;59.70;;;54.05;;
46282;SDS011;32017;43.700;11.820;2023-12-20T02:49:05;57.33;;;52.83;;
46282;SDS011;32017;43.700;11.820;2023-12-20T02:51:07;54.40;;;50.03;;
46282;SDS011;32017;43.700;11.820;2023-12-20T02:53:10;54.25;;;50.25;;
46282;SDS011;32017;43.700;11.820;2023-12-20T02:55:11;54.03;;;49.43;;
46282;SDS011;32017;43.700;11.820;2023-12-20T02:57:13;57.95;;;53.28;;
46282;SDS011;32017;43.700;11.820;2023-12-20T02:59:15;60.70;;;55.58;;
46282;SDS011;32017;43.700;11.820;2023-12-20T03:01:17;58.83;;;54.15;;
46282;SDS011;32017;43.700;11.820;2023-12-20T03:03:19;61.17;;;56.40;;
46282;SDS011;32017;43.700;11.820;2023-12-20T03:05:21;64.23;;;58.90;;
46282;SDS011;32017;43.700;11.820;2023-12-20T03:07:22;63.05;;;57.50;;
46282;SDS011;32017;43.700;11.820;2023-12-20T03:09:24;65.70;;;60.33;;
46282;SDS011;32017;43.700;11.820;2023-12-20T03:11:26;61.27;;;56.27;;
46282;SDS011;32017;43.700;11.820;2023-12-20T03:13:28;60.30;;;55.28;;
46282;SDS011;32017;43.700;11.820;2023-12-20T03:15:30;63.83;;;58.40;;
46282;SDS011;32017;43.700;11.820;2023-12-20T03:17:31;60.28;;;55.22;;
46282;SDS011;32017;43.700;11.820;2023-12-20T03:19:33;62.10;;;56.70;;
46282;SDS011;32017;43.700;11.820;2023-12-20T03:21:34;66.07;;;60.20;;
46282;SDS011;32017;43.700;11.820;2023-12-20T03:23:36;68.63;;;62.67;;
46282;SDS011;32017;43.700;11.820;2023-12-20T03:25:38;65.47;;;59.65;;
46282;SDS011;32017;43.700;11.820;2023-12-20T03:27:39;66.18;;;60.22;;
46282;SDS011;32017;43.700;11.820;2023-12-20T03:29:41;64.05;;;58.30;;
46282;SDS011;32017;43.700;11.820;2023-12-20T03:31:43;81.20;;;70.38;;
46282;SDS011;32017;43.700;11.820;2023-12-20T03:33:44;82.03;;;72.70;;
46282;SDS011;32017;43.700;11.820;2023-12-20T03:35:47;70.50;;;63.13;;
46282;SDS011;32017;43.700;11.820;2023-12-20T03:37:48;72.20;;;64.85;;
46282;SDS011;32017;43.700;11.820;2023-12-20T03:39:51;67.07;;;61.55;;
46282;SDS011;32017;43.700;11.820;2023-12-20T03:41:53;67.27;;;61.63;;
46282;SDS011;32017;43.700;11.820;2023-12-20T03:43:54;65.82;;;60.35;;
46282;SDS011;32017;43.700;11.820;2023-12-20T03:45:56;61.25;;;55.97;;
46282;SDS011;32017;43.700;11.820;2023-12-20T03:47:58;61.88;;;56.92;;
46282;SDS011;32017;43.700;11.820;2023-12-20T03:49:59;57.95;;;53.58;;
46282;SDS011;32017;43.700;11.820;2023-12-20T03:52:01;57.63;;;53.33;;
46282;SDS011;32017;43.700;11.820;2023-12-20T03:54:03;59.17;;;54.13;;
46282;SDS011;32017;43.700;11.820;2023-12-20T03:56:04;62.17;;;57.20;;
46282;SDS011;32017;43.700;11.820;2023-12-20T03:58:06;58.97;;;54.57;;
46282;SDS011;32017;43.700;11.820;2023-12-20T04:00:08;56.95;;;52.80;;
46282;SDS011;32017;43.700;11.820;2023-12-20T04:02:13;55.03;;;51.17;;
46282;SDS011;32017;43.700;11.820;2023-12-20T04:04:14;56.20;;;52.22;;
46282;SDS011;32017;43.700;11.820;2023-12-20T04:06:17;48.73;;;45.73;;
46282;SDS011;32017;43.700;11.820;2023-12-20T04:08:19;51.22;;;48.28;;
46282;SDS011;32017;43.700;11.820;2023-12-20T04:10:21;49.83;;;47.10;;
46282;SDS011;32017;43.700;11.820;2023-12-20T04:12:23;50.53;;;47.53;;
46282;SDS011;32017;43.700;11.820;2023-12-20T04:14:24;50.38;;;47.58;;
46282;SDS011;32017;43.700;11.820;2023-12-20T04:16:26;48.25;;;45.30;;
46282;SDS011;32017;43.700;11.820;2023-12-20T04:18:28;50.37;;;47.30;;
46282;SDS011;32017;43.700;11.820;2023-12-20T04:20:30;51.25;;;48.08;;
46282;SDS011;32017;43.700;11.820;2023-12-20T04:22:31;51.10;;;47.88;;
46282;SDS011;32017;43.700;11.820;2023-12-20T04:24:33;47.57;;;44.47;;
46282;SDS011;32017;43.700;11.820;2023-12-20T04:26:35;48.85;;;45.75;;
46282;SDS011;32017;43.700;11.820;2023-12-20T04:28:36;46.65;;;43.50;;
46282;SDS011;32017;43.700;11.820;2023-12-20T04:30:38;49.55;;;46.53;;
46282;SDS011;32017;43.700;11.820;2023-12-20T04:32:40;54.65;;;50.95;;
46282;SDS011;32017;43.700;11.820;2023-12-20T04:34:41;49.45;;;46.22;;
46282;SDS011;32017;43.700;11.820;2023-12-20T04:36:43;46.58;;;43.35;;
46282;SDS011;32017;43.700;11.820;2023-12-20T04:38:45;54.30;;;50.45;;
46282;SDS011;32017;43.700;11.820;2023-12-20T04:40:46;52.38;;;48.97;;
46282;SDS011;32017;43.700;11.820;2023-12-20T04:44:51;56.03;;;51.92;;
46282;SDS011;32017;43.700;11.820;2023-12-20T04:46:52;57.28;;;53.10;;
46282;SDS011;32017;43.700;11.820;2023-12-20T04:48:54;57.65;;;53.42;;
46282;SDS011;32017;43.700;11.820;2023-12-20T04:50:55;58.70;;;54.00;;
46282;SDS011;32017;43.700;11.820;2023-12-20T04:52:57;61.92;;;56.97;;
46282;SDS011;32017;43.700;11.820;2023-12-20T04:54:59;59.15;;;54.50;;
46282;SDS011;32017;43.700;11.820;2023-12-20T04:57:01;59.95;;;55.28;;
46282;SDS011;32017;43.700;11.820;2023-12-20T04:59:02;88.00;;;78.65;;
46282;SDS011;32017;43.700;11.820;2023-12-20T05:01:05;81.22;;;73.15;;
46282;SDS011;32017;43.700;11.820;2023-12-20T05:03:09;129.45;;;65.95;;
46282;SDS011;32017;43.700;11.820;2023-12-20T05:05:11;102.65;;;58.92;;
46282;SDS011;32017;43.700;11.820;2023-12-20T05:07:13;82.70;;;61.90;;
46282;SDS011;32017;43.700;11.820;2023-12-20T05:09:15;61.72;;;55.13;;
46282;SDS011;32017;43.700;11.820;2023-12-20T05:11:17;158.68;;;51.83;;
46282;SDS011;32017;43.700;11.820;2023-12-20T05:13:18;58.42;;;49.60;;
46282;SDS011;32017;43.700;11.820;2023-12-20T05:15:20;67.30;;;54.40;;
46282;SDS011;32017;43.700;11.820;2023-12-20T05:17:22;53.45;;;50.17;;
46282;SDS011;32017;43.700;11.820;2023-12-20T05:19:23;47.28;;;44.60;;
46282;SDS011;32017;43.700;11.820;2023-12-20T05:21:25;49.30;;;46.37;;
46282;SDS011;32017;43.700;11.820;2023-12-20T05:23:27;53.45;;;50.13;;
46282;SDS011;32017;43.700;11.820;2023-12-20T05:25:31;55.20;;;51.28;;
46282;SDS011;32017;43.700;11.820;2023-12-20T05:27:33;56.03;;;52.20;;
46282;SDS011;32017;43.700;11.820;2023-12-20T05:29:34;55.13;;;51.63;;
46282;SDS011;32017;43.700;11.820;2023-12-20T05:31:37;58.83;;;54.67;;
46282;SDS011;32017;43.700;11.820;2023-12-20T05:33:39;55.20;;;51.15;;
46282;SDS011;32017;43.700;11.820;2023-12-20T05:35:41;51.07;;;47.40;;
46282;SDS011;32017;43.700;11.820;2023-12-20T05:37:43;50.45;;;47.00;;
46282;SDS011;32017;43.700;11.820;2023-12-20T05:39:45;50.00;;;46.60;;
46282;SDS011;32017;43.700;11.820;2023-12-20T05:41:47;48.42;;;45.63;;
46282;SDS011;32017;43.700;11.820;2023-12-20T05:43:49;46.78;;;43.97;;
46282;SDS011;32017;43.700;11.820;2023-12-20T05:45:53;57.60;;;53.42;;
46282;SDS011;32017;43.700;11.820;2023-12-20T05:47:54;58.65;;;54.13;;
46282;SDS011;32017;43.700;11.820;2023-12-20T05:49:56;57.67;;;53.40;;
46282;SDS011;32017;43.700;11.820;2023-12-20T05:51:58;55.13;;;51.13;;
46282;SDS011;32017;43.700;11.820;2023-12-20T05:54:00;54.42;;;50.88;;
46282;SDS011;32017;43.700;11.820;2023-12-20T05:56:01;55.97;;;52.63;;
46282;SDS011;32017;43.700;11.820;2023-12-20T05:58:03;55.83;;;52.20;;
46282;SDS011;32017;43.700;11.820;2023-12-20T06:00:06;55.50;;;51.58;;
46282;SDS011;32017;43.700;11.820;2023-12-20T06:02:08;55.17;;;51.17;;
46282;SDS011;32017;43.700;11.820;2023-12-20T06:04:10;54.05;;;50.40;;
46282;SDS011;32017;43.700;11.820;2023-12-20T06:06:12;52.53;;;48.97;;
46282;SDS011;32017;43.700;11.820;2023-12-20T06:08:17;57.22;;;53.50;;
46282;SDS011;32017;43.700;11.820;2023-12-20T06:10:19;52.08;;;48.40;;
46282;SDS011;32017;43.700;11.820;2023-12-20T06:12:21;53.70;;;50.05;;
46282;SDS011;32017;43.700;11.820;2023-12-20T06:14:22;56.60;;;52.88;;
46282;SDS011;32017;43.700;11.820;2023-12-20T06:16:24;56.40;;;52.30;;
46282;SDS011;32017;43.700;11.820;2023-12-20T06:18:26;55.30;;;51.78;;
46282;SDS011;32017;43.700;11.820;2023-12-20T06:20:28;58.77;;;54.60;;
46282;SDS011;32017;43.700;11.820;2023-12-20T06:22:29;58.03;;;53.90;;
46282;SDS011;32017;43.700;11.820;2023-12-20T06:24:31;55.10;;;51.72;;
46282;SDS011;32017;43.700;11.820;2023-12-20T06:26:35;55.08;;;51.38;;
46282;SDS011;32017;43.700;11.820;2023-12-20T06:28:36;54.08;;;50.05;;
46282;SDS011;32017;43.700;11.820;2023-12-20T06:30:43;54.40;;;50.60;;
46282;SDS011;32017;43.700;11.820;2023-12-20T06:32:44;58.38;;;54.33;;
46282;SDS011;32017;43.700;11.820;2023-12-20T06:34:48;55.33;;;51.55;;
46282;SDS011;32017;43.700;11.820;2023-12-20T06:36:50;57.40;;;53.53;;
46282;SDS011;32017;43.700;11.820;2023-12-20T06:38:51;53.35;;;50.03;;
46282;SDS011;32017;43.700;11.820;2023-12-20T06:40:53;56.45;;;52.38;;
46282;SDS011;32017;43.700;11.820;2023-12-20T06:42:55;58.15;;;53.72;;
46282;SDS011;32017;43.700;11.820;2023-12-20T06:45:09;55.35;;;52.00;;
46282;SDS011;32017;43.700;11.820;2023-12-20T06:47:14;49.22;;;46.45;;
46282;SDS011;32017;43.700;11.820;2023-12-20T06:49:15;51.90;;;48.38;;
46282;SDS011;32017;43.700;11.820;2023-12-20T06:51:17;53.20;;;49.75;;
46282;SDS011;32017;43.700;11.820;2023-12-20T06:53:21;54.90;;;51.10;;
46282;SDS011;32017;43.700;11.820;2023-12-20T06:55:22;55.47;;;51.90;;
46282;SDS011;32017;43.700;11.820;2023-12-20T06:57:24;51.55;;;48.30;;
46282;SDS011;32017;43.700;11.820;2023-12-20T06:59:27;49.53;;;46.90;;
46282;SDS011;32017;43.700;11.820;2023-12-20T07:01:29;46.05;;;42.92;;
46282;SDS011;32017;43.700;11.820;2023-12-20T07:03:31;47.90;;;45.13;;
46282;SDS011;32017;43.700;11.820;2023-12-20T07:05:32;52.72;;;49.35;;
46282;SDS011;32017;43.700;11.820;2023-12-20T07:07:34;56.40;;;52.22;;
46282;SDS011;32017;43.700;11.820;2023-12-20T07:09:36;61.28;;;56.53;;
46282;SDS011;32017;43.700;11.820;2023-12-20T07:11:39;59.08;;;53.95;;
46282;SDS011;32017;43.700;11.820;2023-12-20T07:13:41;56.88;;;52.67;;
46282;SDS011;32017;43.700;11.820;2023-12-20T07:15:43;59.78;;;55.55;;
46282;SDS011;32017;43.700;11.820;2023-12-20T07:17:45;56.67;;;52.50;;
46282;SDS011;32017;43.700;11.820;2023-12-20T07:19:47;62.40;;;57.85;;
46282;SDS011;32017;43.700;11.820;2023-12-20T07:21:49;57.17;;;53.13;;
46282;SDS011;32017;43.700;11.820;2023-12-20T07:23:50;51.70;;;48.38;;
46282;SDS011;32017;43.700;11.820;2023-12-20T07:25:52;53.92;;;50.33;;
46282;SDS011;32017;43.700;11.820;2023-12-20T07:27:54;52.17;;;48.77;;
46282;SDS011;32017;43.700;11.820;2023-12-20T07:29:56;51.92;;;48.55;;
46282;SDS011;32017;43.700;11.820;2023-12-20T07:31:57;56.47;;;52.70;;
46282;SDS011;32017;43.700;11.820;2023-12-20T07:33:59;60.13;;;55.55;;
46282;SDS011;32017;43.700;11.820;2023-12-20T07:36:01;54.87;;;51.00;;
46282;SDS011;32017;43.700;11.820;2023-12-20T07:38:03;51.08;;;47.47;;
46282;SDS011;32017;43.700;11.820;2023-12-20T07:40:05;51.47;;;48.17;;
46282;SDS011;32017;43.700;11.820;2023-12-20T07:42:07;56.13;;;52.63;;
46282;SDS011;32017;43.700;11.820;2023-12-20T07:44:09;63.92;;;58.63;;
46282;SDS011;32017;43.700;11.820;2023-12-20T07:46:11;61.65;;;57.30;;
46282;SDS011;32017;43.700;11.820;2023-12-20T07:48:13;58.80;;;54.00;;
46282;SDS011;32017;43.700;11.820;2023-12-20T07:50:15;56.35;;;52.38;;
46282;SDS011;32017;43.700;11.820;2023-12-20T07:52:17;56.35;;;52.30;;
46282;SDS011;32017;43.700;11.820;2023-12-20T07:54:20;59.45;;;55.10;;
46282;SDS011;32017;43.700;11.820;2023-12-20T07:56:21;59.22;;;54.70;;
46282;SDS011;32017;43.700;11.820;2023-12-20T07:58:23;60.22;;;55.35;;
46282;SDS011;32017;43.700;11.820;2023-12-20T08:00:41;56.97;;;52.92;;
46282;SDS011;32017;43.700;11.820;2023-12-20T08:02:42;55.40;;;51.47;;
46282;SDS011;32017;43.700;11.820;2023-12-20T08:04:45;49.80;;;46.67;;
46282;SDS011;32017;43.700;11.820;2023-12-20T08:08:48;52.28;;;49.17;;
46282;SDS011;32017;43.700;11.820;2023-12-20T08:11:02;51.60;;;48.33;;
46282;SDS011;32017;43.700;11.820;2023-12-20T08:13:03;52.50;;;49.07;;
46282;SDS011;32017;43.700;11.820;2023-12-20T08:15:05;49.37;;;46.83;;
46282;SDS011;32017;43.700;11.820;2023-12-20T08:17:07;48.17;;;44.92;;
46282;SDS011;32017;43.700;11.820;2023-12-20T08:19:09;47.47;;;44.35;;
46282;SDS011;32017;43.700;11.820;2023-12-20T08:21:11;49.97;;;46.90;;
46282;SDS011;32017;43.700;11.820;2023-12-20T08:23:13;47.15;;;44.10;;
46282;SDS011;32017;43.700;11.820;2023-12-20T08:25:14;45.47;;;42.80;;
46282;SDS011;32017;43.700;11.820;2023-12-20T08:27:17;48.72;;;46.42;;
46282;SDS011;32017;43.700;11.820;2023-12-20T08:29:18;43.10;;;40.90;;
46282;SDS011;32017;43.700;11.820;2023-12-20T08:31:20;70.65;;;63.60;;
46282;SDS011;32017;43.700;11.820;2023-12-20T08:33:23;61.20;;;56.22;;
46282;SDS011;32017;43.700;11.820;2023-12-20T08:35:24;77.78;;;70.57;;
46282;SDS011;32017;43.700;11.820;2023-12-20T08:37:26;70.50;;;63.95;;
46282;SDS011;32017;43.700;11.820;2023-12-20T08:39:28;81.53;;;72.82;;
46282;SDS011;32017;43.700;11.820;2023-12-20T08:41:31;70.97;;;63.47;;
46282;SDS011;32017;43.700;11.820;2023-12-20T08:43:36;72.28;;;65.25;;
46282;SDS011;32017;43.700;11.820;2023-12-20T08:45:37;73.03;;;66.53;;
46282;SDS011;32017;43.700;11.820;2023-12-20T08:47:40;65.03;;;59.28;;
46282;SDS011;32017;43.700;11.820;2023-12-20T08:49:42;61.72;;;55.50;;
46282;SDS011;32017;43.700;11.820;2023-12-20T08:51:45;60.30;;;54.90;;
46282;SDS011;32017;43.700;11.820;2023-12-20T08:53:47;57.47;;;52.20;;
46282;SDS011;32017;43.700;11.820;2023-12-20T08:55:49;59.45;;;54.60;;
46282;SDS011;32017;43.700;11.820;2023-12-20T08:57:52;54.25;;;49.45;;
46282;SDS011;32017;43.700;11.820;2023-12-20T08:59:53;59.20;;;54.35;;
46282;SDS011;32017;43.700;11.820;2023-12-20T09:01:55;53.17;;;49.33;;
46282;SDS011;32017;43.700;11.820;2023-12-20T09:03:57;53.17;;;49.25;;
46282;SDS011;32017;43.700;11.820;2023-12-20T09:05:59;52.35;;;48.22;;
46282;SDS011;32017;43.700;11.820;2023-12-20T09:08:01;46.95;;;43.63;;
46282;SDS011;32017;43.700;11.820;2023-12-20T09:10:03;58.25;;;53.25;;
46282;SDS011;32017;43.700;11.820;2023-12-20T09:12:05;46.83;;;43.80;;
46282;SDS011;32017;43.700;11.820;2023-12-20T09:14:07;51.30;;;47.40;;
46282;SDS011;32017;43.700;11.820;2023-12-20T09:16:08;41.83;;;39.53;;
46282;SDS011;32017;43.700;11.820;2023-12-20T09:18:10;46.70;;;43.37;;
46282;SDS011;32017;43.700;11.820;2023-12-20T09:20:12;46.13;;;42.83;;
46282;SDS011;32017;43.700;11.820;2023-12-20T09:22:15;42.88;;;39.88;;
46282;SDS011;32017;43.700;11.820;2023-12-20T09:24:17;42.97;;;40.43;;
46282;SDS011;32017;43.700;11.820;2023-12-20T09:26:18;39.97;;;37.42;;
46282;SDS011;32017;43.700;11.820;2023-12-20T09:28:20;37.08;;;34.70;;
46282;SDS011;32017;43.700;11.820;2023-12-20T09:30:22;39.75;;;37.25;;
46282;SDS011;32017;43.700;11.820;2023-12-20T09:32:28;46.35;;;43.40;;
46282;SDS011;32017;43.700;11.820;2023-12-20T09:34:31;45.75;;;42.70;;
46282;SDS011;32017;43.700;11.820;2023-12-20T09:36:33;45.47;;;41.92;;
46282;SDS011;32017;43.700;11.820;2023-12-20T09:38:39;41.55;;;39.13;;
46282;SDS011;32017;43.700;11.820;2023-12-20T09:40:41;43.00;;;40.22;;
46282;SDS011;32017;43.700;11.820;2023-12-20T09:44:44;46.53;;;43.15;;
46282;SDS011;32017;43.700;11.820;2023-12-20T09:46:49;51.42;;;47.05;;
46282;SDS011;32017;43.700;11.820;2023-12-20T09:48:51;51.70;;;47.55;;
46282;SDS011;32017;43.700;11.820;2023-12-20T09:50:54;54.88;;;49.85;;
46282;SDS011;32017;43.700;11.820;2023-12-20T09:52:55;53.63;;;49.80;;
46282;SDS011;32017;43.700;11.820;2023-12-20T09:55:01;51.63;;;47.47;;
46282;SDS011;32017;43.700;11.820;2023-12-20T09:57:03;54.10;;;49.92;;
46282;SDS011;32017;43.700;11.820;2023-12-20T09:59:05;49.78;;;45.80;;
46282;SDS011;32017;43.700;11.820;2023-12-20T10:01:07;46.95;;;42.95;;
46282;SDS011;32017;43.700;11.820;2023-12-20T10:03:09;48.70;;;45.50;;
46282;SDS011;32017;43.700;11.820;2023-12-20T10:05:11;48.78;;;45.17;;
46282;SDS011;32017;43.700;11.820;2023-12-20T10:07:17;50.75;;;46.72;;
46282;SDS011;32017;43.700;11.820;2023-12-20T10:09:18;45.83;;;42.60;;
46282;SDS011;32017;43.700;11.820;2023-12-20T10:11:20;45.33;;;42.30;;
46282;SDS011;32017;43.700;11.820;2023-12-20T10:13:21;50.38;;;46.80;;
46282;SDS011;32017;43.700;11.820;2023-12-20T10:15:23;49.50;;;45.28;;
46282;SDS011;32017;43.700;11.820;2023-12-20T10:17:25;49.13;;;45.45;;
46282;SDS011;32017;43.700;11.820;2023-12-20T10:19:31;49.10;;;45.05;;
46282;SDS011;32017;43.700;11.820;2023-12-20T10:21:33;50.83;;;46.58;;
46282;SDS011;32017;43.700;11.820;2023-12-20T10:23:34;48.47;;;44.88;;
46282;SDS011;32017;43.700;11.820;2023-12-20T10:25:36;50.90;;;46.80;;
46282;SDS011;32017;43.700;11.820;2023-12-20T10:27:38;48.40;;;44.45;;
46282;SDS011;32017;43.700;11.820;2023-12-20T10:29:39;43.47;;;40.35;;
46282;SDS011;32017;43.700;11.820;2023-12-20T10:31:41;39.78;;;37.45;;
46282;SDS011;32017;43.700;11.820;2023-12-20T10:33:44;43.53;;;40.25;;
46282;SDS011;32017;43.700;11.820;2023-12-20T10:35:46;51.43;;;47.37;;
46282;SDS011;32017;43.700;11.820;2023-12-20T10:37:49;42.58;;;39.35;;
46282;SDS011;32017;43.700;11.820;2023-12-20T10:39:52;38.63;;;36.20;;
46282;SDS011;32017;43.700;11.820;2023-12-20T10:41:58;42.47;;;39.67;;
46282;SDS011;32017;43.700;11.820;2023-12-20T10:44:03;40.55;;;37.75;;
46282;SDS011;32017;43.700;11.820;2023-12-20T10:46:06;40.88;;;38.58;;
46282;SDS011;32017;43.700;11.820;2023-12-20T10:48:09;38.65;;;36.75;;
46282;SDS011;32017;43.700;11.820;2023-12-20T10:50:11;39.70;;;37.35;;
46282;SDS011;32017;43.700;11.820;2023-12-20T10:52:13;37.73;;;35.63;;
46282;SDS011;32017;43.700;11.820;2023-12-20T10:54:15;36.63;;;34.95;;
46282;SDS011;32017;43.700;11.820;2023-12-20T10:56:17;38.53;;;36.10;;
46282;SDS011;32017;43.700;11.820;2023-12-20T10:58:25;32.05;;;30.38;;
46282;SDS011;32017;43.700;11.820;2023-12-20T11:00:31;32.97;;;31.45;;
46282;SDS011;32017;43.700;11.820;2023-12-20T11:02:34;34.22;;;32.53;;
46282;SDS011;32017;43.700;11.820;2023-12-20T11:04:45;49.85;;;46.00;;
46282;SDS011;32017;43.700;11.820;2023-12-20T11:06:49;41.33;;;38.72;;
46282;SDS011;32017;43.700;11.820;2023-12-20T11:11:05;33.43;;;31.97;;
46282;SDS011;32017;43.700;11.820;2023-12-20T11:13:20;37.00;;;34.80;;
46282;SDS011;32017;43.700;11.820;2023-12-20T11:15:24;35.25;;;33.15;;
46282;SDS011;32017;43.700;11.820;2023-12-20T11:17:26;34.33;;;32.63;;
46282;SDS011;32017;43.700;11.820;2023-12-20T11:19:28;33.60;;;31.90;;
46282;SDS011;32017;43.700;11.820;2023-12-20T11:21:30;33.87;;;31.77;;
46282;SDS011;32017;43.700;11.820;2023-12-20T11:23:32;34.03;;;32.27;;
46282;SDS011;32017;43.700;11.820;2023-12-20T11:25:48;34.58;;;32.97;;
46282;SDS011;32017;43.700;11.820;2023-12-20T11:30:11;37.38;;;35.03;;
46282;SDS011;32017;43.700;11.820;2023-12-20T11:34:33;34.78;;;32.88;;
46282;SDS011;32017;43.700;11.820;2023-12-20T11:36:37;38.15;;;35.70;;
46282;SDS011;32017;43.700;11.820;2023-12-20T11:38:56;37.50;;;35.00;;
46282;SDS011;32017;43.700;11.820;2023-12-20T11:40:59;38.40;;;35.70;;
46282;SDS011;32017;43.700;11.820;2023-12-20T11:43:05;53.72;;;48.08;;
46282;SDS011;32017;43.700;11.820;2023-12-20T11:45:13;41.45;;;37.97;;
46282;SDS011;32017;43.700;11.820;2023-12-20T11:47:16;40.60;;;37.45;;
46282;SDS011;32017;43.700;11.820;2023-12-20T11:49:22;42.97;;;39.78;;
46282;SDS011;32017;43.700;11.820;2023-12-20T11:51:24;37.60;;;34.70;;
46282;SDS011;32017;43.700;11.820;2023-12-20T11:53:29;39.15;;;36.50;;
46282;SDS011;32017;43.700;11.820;2023-12-20T11:55:33;33.25;;;31.30;;
46282;SDS011;32017;43.700;11.820;2023-12-20T11:57:36;34.33;;;32.17;;
46282;SDS011;32017;43.700;11.820;2023-12-20T11:59:37;32.60;;;30.75;;
46282;SDS011;32017;43.700;11.820;2023-12-20T12:01:39;35.20;;;33.03;;